Wednesday, September 19, 2018, 2:40 PM EDT
Back to Local

KJGG, Williamsburg, Williamsburg-jamestown Airport

Location: Williamsburg, VA, United States Lat: 37.239
Local Time: 2:40 PM EDT (18:40 GMT) Lon: -76.716
Time Zone: US/Eastern Elev: 49 ft

Show me the last for .
Show Coded

Time T Td Feel RH Dir Speed Gust Alt SLP Vis Weather Sky Remarks
2018-09-19 14:15 88 70 93 55 340° 9 - 29.93 - 10 CLR None
2018-09-19 13:55 90 70 96 52 360° 3 - 29.93 - 10 CLR None
2018-09-19 13:35 88 70 93 55 - Calm - 29.93 - 10 CLR None
2018-09-19 13:15 86 70 91 58 - Calm - 29.94 - 10 CLR None
2018-09-19 12:55 86 70 91 58 10° 3 - 29.94 - 10 CLR None
2018-09-19 12:35 84 70 89 62 - Calm - 29.94 - 10 CLR None
2018-09-19 12:15 86 70 91 58 - Calm - 29.94 - 10 CLR None
2018-09-19 11:55 84 72 90 66 - Calm - 29.94 - 10 CLR None
2018-09-19 11:35 84 70 89 62 - Calm - 29.94 - 10 CLR None
2018-09-19 11:15 82 70 87 65 20° 6 - 29.94 - 10 CLR None
2018-09-19 10:55 81 72 85 74 350° 10 16 29.94 - 10 CLR None
2018-09-19 10:35 79 72 83 78 340° 7 - 29.93 - 10 CLR None
2018-09-19 10:15 77 72 81 83 - Calm - 29.93 - 10 CLR None
2018-09-19 09:55 75 72 79 88 - Calm - 29.93 - 10 CLR None
2018-09-19 09:35 73 72 78 94 - Calm - 29.92 - 10 CLR None
2018-09-19 09:15 73 72 78 94 - Calm - 29.91 - 10 CLR None
2018-09-19 08:55 72 70 76 94 - Calm - 29.91 - 10 CLR None
2018-09-19 08:35 72 70 76 94 - Calm - 29.91 - 10 CLR None
2018-09-19 08:15 70 70 - 100 - Calm - 29.91 - 10 CLR None
2018-09-19 07:55 70 68 - 94 - Calm - 29.90 - 7 CLR None
2018-09-19 07:35 70 68 - 94 - Calm - 29.90 - 7 CLR None
2018-09-19 07:15 70 68 - 94 - Calm - 29.89 - 4 CLR None
2018-09-19 06:55 70 68 - 94 - Calm - 29.88 - 4 CLR None
2018-09-19 06:35 70 68 - 94 - Calm - 29.87 - 5 CLR None
2018-09-19 06:15 70 68 - 94 - Calm - 29.87 - 4 CLR None
2018-09-19 05:55 70 68 - 94 - Calm - 29.87 - 5 CLR None
2018-09-19 05:35 70 68 - 94 - Calm - 29.87 - 7 CLR None
2018-09-19 05:15 70 68 - 94 - Calm - 29.87 - 7 CLR None
2018-09-19 04:55 70 68 - 94 - Calm - 29.86 - 7 CLR None
2018-09-19 04:35 70 68 - 94 - Calm - 29.86 - 7 CLR None
2018-09-19 04:15 70 70 - 100 - Calm - 29.85 - 7 CLR None
2018-09-19 03:55 70 70 - 100 - Calm - 29.86 - 7 CLR None
2018-09-19 03:35 70 70 - 100 - Calm - 29.85 - 10 CLR None
2018-09-19 03:15 70 70 - 100 - Calm - 29.85 - 10 CLR None
2018-09-19 02:55 70 70 - 100 - Calm - 29.85 - 10 CLR None
2018-09-19 02:35 72 70 76 94 - Calm - 29.85 - 10 CLR None
2018-09-19 02:15 72 70 76 94 340° 6 - 29.85 - 10 CLR None
2018-09-19 01:55 72 70 76 94 - Calm - 29.84 - 10 CLR None
2018-09-19 01:35 72 72 76 100 - Calm - 29.84 - 10 CLR None
2018-09-19 01:15 72 72 76 100 - Calm - 29.84 - 10 CLR None
2018-09-19 00:55 73 72 78 94 - Calm - 29.84 - 10 CLR None
2018-09-19 00:35 73 72 78 94 - Calm - 29.84 - 10 CLR None
2018-09-19 00:15 73 72 78 94 - Calm - 29.84 - 10 CLR None
2018-09-18 23:55 73 73 78 100 - Calm - 29.84 - 10 CLR None
2018-09-18 23:35 73 73 78 100 - Calm - 29.84 - 10 CLR None
2018-09-18 23:15 73 73 78 100 - Calm - 29.84 - 10 CLR None
2018-09-18 22:55 73 73 78 100 - Calm - 29.84 - 10 CLR None
2018-09-18 22:35 75 73 80 94 - Calm - 29.85 - 10 CLR None
2018-09-18 22:15 73 73 78 100 - Calm - 29.84 - 10 CLR None
2018-09-18 21:55 73 73 78 100 - Calm - 29.84 - 10 CLR None
2018-09-18 21:35 73 73 78 100 - Calm - 29.84 - 10 CLR None
2018-09-18 21:15 73 73 78 100 - Calm - 29.84 - 10 SCT050 SCT060 None
2018-09-18 20:55 73 72 78 94 330° 5 - 29.84 - 10 SCT050 BKN060 None
2018-09-18 20:35 73 72 78 94 - Calm - 29.83 - 10 CLR None
2018-09-18 20:15 73 72 78 94 - Calm - 29.82 - 10 SCT050 None
2018-09-18 19:55 73 72 78 94 - Calm - 29.81 - 10 SCT050 1-hr Precip Total: 0.01"
2018-09-18 19:35 73 72 78 94 340° 3 - 29.81 - 10 SCT050 1-hr Precip Total: 0.01"
2018-09-18 19:15 73 72 78 94 - Calm - 29.81 - 10 CLR 1-hr Precip Total: 0.01"
2018-09-18 18:55 75 73 80 94 340° 5 - 29.80 - 1 VV007 Variable visibility
1-hr Precip Total: 0.05"
2018-09-18 18:35 75 73 80 94 340° 10 - 29.80 - 1 VV007 1-hr Precip Total: 0.02"
2018-09-18 18:15 75 73 80 94 340° 7 - 29.79 - 10 CLR 1-hr Precip Total: 0.01"
2018-09-18 17:55 77 73 82 88 310° 3 - 29.78 - 10 CLR None
2018-09-18 17:35 79 73 84 83 - Calm - 29.78 - 10 CLR None
2018-09-18 17:15 77 73 82 88 - Calm - 29.77 - 10 CLR None
2018-09-18 16:55 79 73 84 83 - Calm - 29.77 - 3 SCT005 SCT030 SCT036 1-hr Precip Total: 0.05"
2018-09-18 16:35 82 72 88 69 280° 16 22 29.77 - 10 SCT030 None
2018-09-18 16:15 82 70 87 65 - Calm - 29.76 - 10 CLR None
2018-09-18 15:55 84 72 90 66 240° 8 - 29.76 - 10 CLR None
2018-09-18 15:35 84 72 90 66 250° 7 - 29.76 - 10 CLR None
2018-09-18 15:15 84 72 90 66 - Calm - 29.76 - 10 CLR None
2018-09-18 14:55 81 72 85 74 - Calm - 29.77 - 10 CLR None

Support USWX by starting your Amazon purchase here.